sensor_id;sensor_type;location;lat;lon;timestamp;pressure;altitude;pressure_sealevel;temperature;humidity
50977;BME280;36992;48.200;12.418;2023-06-10T00:00:01;96335.16;;;24.19;37.49
50977;BME280;36992;48.200;12.418;2023-06-10T00:02:30;96332.78;;;24.14;37.93
50977;BME280;36992;48.200;12.418;2023-06-10T00:04:56;96332.03;;;24.09;37.85
50977;BME280;36992;48.200;12.418;2023-06-10T00:07:23;96332.38;;;24.04;38.11
50977;BME280;36992;48.200;12.418;2023-06-10T00:09:51;96336.69;;;24.02;38.20
50977;BME280;36992;48.200;12.418;2023-06-10T00:12:18;96328.81;;;23.96;38.25
50977;BME280;36992;48.200;12.418;2023-06-10T00:14:45;96330.38;;;23.94;38.35
50977;BME280;36992;48.200;12.418;2023-06-10T00:17:13;96331.16;;;23.91;38.60
50977;BME280;36992;48.200;12.418;2023-06-10T00:19:40;96329.97;;;23.88;38.72
50977;BME280;36992;48.200;12.418;2023-06-10T00:22:07;96328.78;;;23.85;38.61
50977;BME280;36992;48.200;12.418;2023-06-10T00:24:33;96325.66;;;23.83;38.73
50977;BME280;36992;48.200;12.418;2023-06-10T00:27:02;96325.66;;;23.83;38.65
50977;BME280;36992;48.200;12.418;2023-06-10T00:29:28;96326.41;;;23.80;39.02
50977;BME280;36992;48.200;12.418;2023-06-10T00:31:55;96328.78;;;23.78;38.76
50977;BME280;36992;48.200;12.418;2023-06-10T00:34:22;96327.22;;;23.77;38.81
50977;BME280;36992;48.200;12.418;2023-06-10T00:36:49;96320.13;;;23.76;39.03
50977;BME280;36992;48.200;12.418;2023-06-10T00:39:15;96322.09;;;23.76;39.08
50977;BME280;36992;48.200;12.418;2023-06-10T00:41:42;96320.53;;;23.75;38.90
50977;BME280;36992;48.200;12.418;2023-06-10T00:44:10;96326.78;;;23.75;38.94
50977;BME280;36992;48.200;12.418;2023-06-10T00:46:37;96318.53;;;23.71;38.94
50977;BME280;36992;48.200;12.418;2023-06-10T00:49:03;96322.84;;;23.69;39.28
50977;BME280;36992;48.200;12.418;2023-06-10T00:51:30;96317.75;;;23.67;39.09
50977;BME280;36992;48.200;12.418;2023-06-10T00:53:57;96329.16;;;23.66;39.33
50977;BME280;36992;48.200;12.418;2023-06-10T00:56:24;96321.66;;;23.63;39.53
50977;BME280;36992;48.200;12.418;2023-06-10T00:58:51;96318.53;;;23.61;39.54
50977;BME280;36992;48.200;12.418;2023-06-10T01:01:19;96318.53;;;23.61;39.39
50977;BME280;36992;48.200;12.418;2023-06-10T01:03:46;96316.13;;;23.55;39.54
50977;BME280;36992;48.200;12.418;2023-06-10T01:06:20;96317.72;;;23.56;38.89
50977;BME280;36992;48.200;12.418;2023-06-10T01:08:55;96322.81;;;23.54;39.18
50977;BME280;36992;48.200;12.418;2023-06-10T01:11:28;96327.94;;;23.52;39.19
50977;BME280;36992;48.200;12.418;2023-06-10T01:13:56;96322.00;;;23.43;39.94
50977;BME280;36992;48.200;12.418;2023-06-10T01:16:26;96327.88;;;23.41;39.56
50977;BME280;36992;48.200;12.418;2023-06-10T01:18:53;96319.22;;;23.36;39.71
50977;BME280;36992;48.200;12.418;2023-06-10T01:21:22;96318.81;;;23.34;39.53
50977;BME280;36992;48.200;12.418;2023-06-10T01:23:50;96324.66;;;23.28;39.75
50977;BME280;36992;48.200;12.418;2023-06-10T01:26:17;96319.91;;;23.25;39.95
50977;BME280;36992;48.200;12.418;2023-06-10T01:28:49;96326.59;;;23.24;39.63
50977;BME280;36992;48.200;12.418;2023-06-10T01:31:23;96322.28;;;23.23;39.54
50977;BME280;36992;48.200;12.418;2023-06-10T01:34:00;96319.09;;;23.17;39.98
50977;BME280;36992;48.200;12.418;2023-06-10T01:36:29;96316.75;;;23.16;39.92
50977;BME280;36992;48.200;12.418;2023-06-10T01:38:58;96318.69;;;23.12;40.17
50977;BME280;36992;48.200;12.418;2023-06-10T01:41:26;96317.88;;;23.08;40.41
50977;BME280;36992;48.200;12.418;2023-06-10T01:43:54;96322.97;;;23.06;40.49
50977;BME280;36992;48.200;12.418;2023-06-10T01:46:21;96326.06;;;23.00;40.70
50977;BME280;36992;48.200;12.418;2023-06-10T01:48:48;96320.56;;;22.97;40.86
50977;BME280;36992;48.200;12.418;2023-06-10T01:51:14;96318.97;;;22.92;40.75
50977;BME280;36992;48.200;12.418;2023-06-10T01:53:42;96315.84;;;22.90;40.94
50977;BME280;36992;48.200;12.418;2023-06-10T01:56:09;96318.13;;;22.84;40.93
50977;BME280;36992;48.200;12.418;2023-06-10T01:58:41;96323.59;;;22.81;40.99
50977;BME280;36992;48.200;12.418;2023-06-10T02:01:08;96320.03;;;22.76;41.20
50977;BME280;36992;48.200;12.418;2023-06-10T02:03:34;96318.81;;;22.70;41.40
50977;BME280;36992;48.200;12.418;2023-06-10T02:06:01;96321.94;;;22.65;41.39
50977;BME280;36992;48.200;12.418;2023-06-10T02:08:27;96321.13;;;22.61;41.48
50977;BME280;36992;48.200;12.418;2023-06-10T02:10:55;96323.47;;;22.59;41.39
50977;BME280;36992;48.200;12.418;2023-06-10T02:13:22;96324.22;;;22.56;41.89
50977;BME280;36992;48.200;12.418;2023-06-10T02:15:48;96320.28;;;22.53;41.45
50977;BME280;36992;48.200;12.418;2023-06-10T02:18:14;96324.53;;;22.50;42.20
50977;BME280;36992;48.200;12.418;2023-06-10T02:20:41;96323.75;;;22.46;42.00
50977;BME280;36992;48.200;12.418;2023-06-10T02:23:07;96321.75;;;22.43;41.97
50977;BME280;36992;48.200;12.418;2023-06-10T02:25:34;96318.59;;;22.41;42.22
50977;BME280;36992;48.200;12.418;2023-06-10T02:28:02;96322.91;;;22.42;42.19
50977;BME280;36992;48.200;12.418;2023-06-10T02:30:29;96323.28;;;22.41;42.37
50977;BME280;36992;48.200;12.418;2023-06-10T02:32:56;96328.78;;;22.41;42.16
50977;BME280;36992;48.200;12.418;2023-06-10T02:35:24;96321.72;;;22.40;42.61
50977;BME280;36992;48.200;12.418;2023-06-10T02:37:51;96317.03;;;22.40;42.09
50977;BME280;36992;48.200;12.418;2023-06-10T02:40:17;96325.28;;;22.40;41.99
50977;BME280;36992;48.200;12.418;2023-06-10T02:42:43;96320.16;;;22.39;42.05
50977;BME280;36992;48.200;12.418;2023-06-10T02:45:11;96328.78;;;22.41;42.21
50977;BME280;36992;48.200;12.418;2023-06-10T02:47:38;96329.16;;;22.39;42.25
50977;BME280;36992;48.200;12.418;2023-06-10T02:50:05;96331.13;;;22.39;42.28
50977;BME280;36992;48.200;12.418;2023-06-10T02:52:32;96329.56;;;22.37;42.18
50977;BME280;36992;48.200;12.418;2023-06-10T02:54:58;96331.50;;;22.37;41.99
50977;BME280;36992;48.200;12.418;2023-06-10T02:57:25;96331.09;;;22.35;42.17
50977;BME280;36992;48.200;12.418;2023-06-10T02:59:51;96325.19;;;22.33;42.30
50977;BME280;36992;48.200;12.418;2023-06-10T03:02:20;96324.78;;;22.31;42.41
50977;BME280;36992;48.200;12.418;2023-06-10T03:04:47;96322.38;;;22.26;42.49
50977;BME280;36992;48.200;12.418;2023-06-10T03:07:15;96326.28;;;22.21;42.24
50977;BME280;36992;48.200;12.418;2023-06-10T03:09:43;96331.34;;;22.19;42.63
50977;BME280;36992;48.200;12.418;2023-06-10T03:12:10;96331.72;;;22.17;42.60
50977;BME280;36992;48.200;12.418;2023-06-10T03:14:37;96334.09;;;22.19;42.46
50977;BME280;36992;48.200;12.418;2023-06-10T03:17:04;96333.31;;;22.18;42.81
50977;BME280;36992;48.200;12.418;2023-06-10T03:19:32;96337.25;;;22.21;41.89
50977;BME280;36992;48.200;12.418;2023-06-10T03:22:08;96334.13;;;22.22;41.80
50977;BME280;36992;48.200;12.418;2023-06-10T03:24:35;96331.88;;;22.35;40.35
50977;BME280;36992;48.200;12.418;2023-06-10T03:27:06;96340.00;;;22.21;41.94
50977;BME280;36992;48.200;12.418;2023-06-10T03:29:32;96345.06;;;22.19;42.59
50977;BME280;36992;48.200;12.418;2023-06-10T03:31:59;96358.34;;;22.17;42.62
50977;BME280;36992;48.200;12.418;2023-06-10T03:34:25;96361.50;;;22.15;42.31
50977;BME280;36992;48.200;12.418;2023-06-10T03:36:53;96358.34;;;22.17;42.53
50977;BME280;36992;48.200;12.418;2023-06-10T03:39:20;96355.59;;;22.13;42.39
50977;BME280;36992;48.200;12.418;2023-06-10T03:41:46;96368.53;;;22.13;42.94
50977;BME280;36992;48.200;12.418;2023-06-10T03:44:13;96361.47;;;22.12;42.89
50977;BME280;36992;48.200;12.418;2023-06-10T03:46:40;96359.09;;;22.10;42.64
50977;BME280;36992;48.200;12.418;2023-06-10T03:49:06;96365.31;;;22.07;43.04
50977;BME280;36992;48.200;12.418;2023-06-10T03:51:33;96363.75;;;22.06;43.08
50977;BME280;36992;48.200;12.418;2023-06-10T03:54:02;96362.19;;;22.05;42.76
50977;BME280;36992;48.200;12.418;2023-06-10T03:56:29;96362.13;;;22.01;43.23
50977;BME280;36992;48.200;12.418;2023-06-10T03:58:55;96362.50;;;22.00;43.12
50977;BME280;36992;48.200;12.418;2023-06-10T04:01:22;96363.69;;;21.99;43.48
50977;BME280;36992;48.200;12.418;2023-06-10T04:03:48;96362.88;;;21.98;43.56
50977;BME280;36992;48.200;12.418;2023-06-10T04:06:16;96373.84;;;21.98;43.35
50977;BME280;36992;48.200;12.418;2023-06-10T04:08:43;96382.47;;;21.96;42.78
50977;BME280;36992;48.200;12.418;2023-06-10T04:11:11;96366.41;;;21.99;43.40
50977;BME280;36992;48.200;12.418;2023-06-10T04:13:37;96374.25;;;21.96;43.50
50977;BME280;36992;48.200;12.418;2023-06-10T04:16:04;96376.19;;;21.96;43.12
50977;BME280;36992;48.200;12.418;2023-06-10T04:18:31;96375.38;;;21.95;43.29
50977;BME280;36992;48.200;12.418;2023-06-10T04:20:57;96380.09;;;21.95;43.18
50977;BME280;36992;48.200;12.418;2023-06-10T04:23:24;96384.78;;;21.94;43.24
50977;BME280;36992;48.200;12.418;2023-06-10T04:25:51;96376.94;;;21.93;43.03
50977;BME280;36992;48.200;12.418;2023-06-10T04:28:19;96379.28;;;21.94;43.29
50977;BME280;36992;48.200;12.418;2023-06-10T04:30:45;96378.09;;;21.92;43.02
50977;BME280;36992;48.200;12.418;2023-06-10T04:33:12;96388.28;;;21.91;43.65
50977;BME280;36992;48.200;12.418;2023-06-10T04:35:38;96392.19;;;21.90;43.65
50977;BME280;36992;48.200;12.418;2023-06-10T04:38:05;96380.78;;;21.88;44.02
50977;BME280;36992;48.200;12.418;2023-06-10T04:40:31;96391.75;;;21.88;43.80
50977;BME280;36992;48.200;12.418;2023-06-10T04:42:58;96385.50;;;21.88;43.77
50977;BME280;36992;48.200;12.418;2023-06-10T04:45:26;96394.94;;;21.90;43.60
50977;BME280;36992;48.200;12.418;2023-06-10T04:47:54;96389.81;;;21.89;43.51
50977;BME280;36992;48.200;12.418;2023-06-10T04:50:21;96392.56;;;21.89;43.88
50977;BME280;36992;48.200;12.418;2023-06-10T04:52:47;96396.50;;;21.91;44.11
50977;BME280;36992;48.200;12.418;2023-06-10T04:55:15;96402.41;;;21.93;43.63
50977;BME280;36992;48.200;12.418;2023-06-10T04:57:41;96405.13;;;21.93;43.59
50977;BME280;36992;48.200;12.418;2023-06-10T05:00:09;96401.22;;;21.94;44.43
50977;BME280;36992;48.200;12.418;2023-06-10T05:02:37;96402.81;;;21.95;43.96
50977;BME280;36992;48.200;12.418;2023-06-10T05:05:04;96409.84;;;21.93;44.33
50977;BME280;36992;48.200;12.418;2023-06-10T05:07:31;96407.47;;;21.91;44.57
50977;BME280;36992;48.200;12.418;2023-06-10T05:09:57;96404.69;;;21.88;44.91
50977;BME280;36992;48.200;12.418;2023-06-10T05:12:24;96405.06;;;21.86;45.12
50977;BME280;36992;48.200;12.418;2023-06-10T05:14:50;96405.78;;;21.83;45.09
50977;BME280;36992;48.200;12.418;2023-06-10T05:17:17;96405.78;;;21.83;44.90
50977;BME280;36992;48.200;12.418;2023-06-10T05:19:45;96410.91;;;21.85;45.01
50977;BME280;36992;48.200;12.418;2023-06-10T05:22:12;96404.22;;;21.82;45.44
50977;BME280;36992;48.200;12.418;2023-06-10T05:24:39;96409.72;;;21.82;45.92
50977;BME280;36992;48.200;12.418;2023-06-10T05:27:06;96403.06;;;21.83;45.64
50977;BME280;36992;48.200;12.418;2023-06-10T05:29:34;96407.78;;;21.82;46.33
50977;BME280;36992;48.200;12.418;2023-06-10T05:32:00;96408.13;;;21.81;45.55
50977;BME280;36992;48.200;12.418;2023-06-10T05:34:28;96405.00;;;21.79;45.90
50977;BME280;36992;48.200;12.418;2023-06-10T05:36:56;96407.72;;;21.79;45.88
50977;BME280;36992;48.200;12.418;2023-06-10T05:39:22;96412.78;;;21.77;46.22
50977;BME280;36992;48.200;12.418;2023-06-10T05:41:49;96413.94;;;21.76;46.08
50977;BME280;36992;48.200;12.418;2023-06-10T05:44:15;96412.00;;;21.76;45.89
50977;BME280;36992;48.200;12.418;2023-06-10T05:46:42;96403.78;;;21.76;45.82
50977;BME280;36992;48.200;12.418;2023-06-10T05:49:08;96405.72;;;21.76;46.55
50977;BME280;36992;48.200;12.418;2023-06-10T05:51:35;96414.75;;;21.76;47.16
50977;BME280;36992;48.200;12.418;2023-06-10T05:54:03;96405.00;;;21.79;46.35
50977;BME280;36992;48.200;12.418;2023-06-10T05:56:30;96404.19;;;21.78;46.37
50977;BME280;36992;48.200;12.418;2023-06-10T05:58:56;96408.13;;;21.81;46.33
50977;BME280;36992;48.200;12.418;2023-06-10T06:01:23;96400.31;;;21.83;45.92
50977;BME280;36992;48.200;12.418;2023-06-10T06:03:49;96403.91;;;21.87;47.40
50977;BME280;36992;48.200;12.418;2023-06-10T06:06:16;96401.56;;;21.89;45.16
50977;BME280;36992;48.200;12.418;2023-06-10T06:08:45;96403.56;;;21.92;45.99
50977;BME280;36992;48.200;12.418;2023-06-10T06:11:13;96397.75;;;21.98;46.99
50977;BME280;36992;48.200;12.418;2023-06-10T06:13:40;96392.66;;;22.00;47.42
50977;BME280;36992;48.200;12.418;2023-06-10T06:16:07;96390.34;;;22.02;45.38
50977;BME280;36992;48.200;12.418;2023-06-10T06:18:33;96393.16;;;22.05;47.05
50977;BME280;36992;48.200;12.418;2023-06-10T06:21:00;96393.94;;;22.09;46.59
50977;BME280;36992;48.200;12.418;2023-06-10T06:23:27;96393.97;;;22.13;47.23
50977;BME280;36992;48.200;12.418;2023-06-10T06:25:53;96390.50;;;22.16;47.19
50977;BME280;36992;48.200;12.418;2023-06-10T06:28:21;96403.88;;;22.21;46.28
50977;BME280;36992;48.200;12.418;2023-06-10T06:30:48;96401.53;;;22.23;46.30
50977;BME280;36992;48.200;12.418;2023-06-10T06:33:14;96400.78;;;22.27;47.51
50977;BME280;36992;48.200;12.418;2023-06-10T06:35:41;96406.31;;;22.30;47.24
50977;BME280;36992;48.200;12.418;2023-06-10T06:38:08;96411.00;;;22.30;46.26
50977;BME280;36992;48.200;12.418;2023-06-10T06:40:34;96406.69;;;22.29;46.04
50977;BME280;36992;48.200;12.418;2023-06-10T06:43:01;96403.19;;;22.32;47.37
50977;BME280;36992;48.200;12.418;2023-06-10T06:45:29;96405.91;;;22.32;46.33
50977;BME280;36992;48.200;12.418;2023-06-10T06:47:55;96407.50;;;22.33;47.57
50977;BME280;36992;48.200;12.418;2023-06-10T06:50:22;96398.50;;;22.32;47.95
50977;BME280;36992;48.200;12.418;2023-06-10T06:52:48;96404.34;;;22.31;47.20
50977;BME280;36992;48.200;12.418;2023-06-10T06:55:15;96407.09;;;22.31;47.16
50977;BME280;36992;48.200;12.418;2023-06-10T06:57:41;96405.91;;;22.32;47.56
50977;BME280;36992;48.200;12.418;2023-06-10T07:00:09;96404.75;;;22.33;47.12
50977;BME280;36992;48.200;12.418;2023-06-10T07:02:37;96404.81;;;22.36;47.47
50977;BME280;36992;48.200;12.418;2023-06-10T07:05:04;96412.25;;;22.36;47.94
50977;BME280;36992;48.200;12.418;2023-06-10T07:07:30;96410.28;;;22.36;47.64
50977;BME280;36992;48.200;12.418;2023-06-10T07:09:57;96414.19;;;22.35;46.43
50977;BME280;36992;48.200;12.418;2023-06-10T07:12:24;96412.63;;;22.38;47.26
50977;BME280;36992;48.200;12.418;2023-06-10T07:14:50;96414.66;;;22.41;47.64
50977;BME280;36992;48.200;12.418;2023-06-10T07:17:17;96408.00;;;22.42;47.68
50977;BME280;36992;48.200;12.418;2023-06-10T07:19:45;96409.19;;;22.45;45.92
50977;BME280;36992;48.200;12.418;2023-06-10T07:22:12;96420.53;;;22.43;47.66
50977;BME280;36992;48.200;12.418;2023-06-10T07:24:38;96418.19;;;22.45;47.85
50977;BME280;36992;48.200;12.418;2023-06-10T07:27:05;96424.47;;;22.46;47.46
50977;BME280;36992;48.200;12.418;2023-06-10T07:29:32;96421.75;;;22.46;47.63
50977;BME280;36992;48.200;12.418;2023-06-10T07:31:58;96423.31;;;22.47;47.78
50977;BME280;36992;48.200;12.418;2023-06-10T07:34:25;96423.69;;;22.45;47.67
50977;BME280;36992;48.200;12.418;2023-06-10T07:36:53;96421.38;;;22.47;47.62
50977;BME280;36992;48.200;12.418;2023-06-10T07:39:19;96421.75;;;22.46;47.84
50977;BME280;36992;48.200;12.418;2023-06-10T07:41:46;96423.69;;;22.45;48.12
50977;BME280;36992;48.200;12.418;2023-06-10T07:44:14;96428.44;;;22.48;47.64
50977;BME280;36992;48.200;12.418;2023-06-10T07:46:40;96424.16;;;22.51;47.69
50977;BME280;36992;48.200;12.418;2023-06-10T07:49:07;96431.66;;;22.58;48.02
50977;BME280;36992;48.200;12.418;2023-06-10T07:51:33;96429.38;;;22.63;47.16
50977;BME280;36992;48.200;12.418;2023-06-10T07:54:01;96429.84;;;22.73;47.69
50977;BME280;36992;48.200;12.418;2023-06-10T07:56:28;96438.13;;;22.80;47.40
50977;BME280;36992;48.200;12.418;2023-06-10T07:58:54;96432.69;;;22.84;47.56
50977;BME280;36992;48.200;12.418;2023-06-10T08:01:22;96430.38;;;22.89;47.00
50977;BME280;36992;48.200;12.418;2023-06-10T08:03:49;96440.19;;;22.94;47.00
50977;BME280;36992;48.200;12.418;2023-06-10T08:06:16;96430.44;;;23.00;45.95
50977;BME280;36992;48.200;12.418;2023-06-10T08:08:42;96436.78;;;23.08;47.59
50977;BME280;36992;48.200;12.418;2023-06-10T08:11:11;96437.63;;;23.16;45.30
50977;BME280;36992;48.200;12.418;2023-06-10T08:13:37;96438.84;;;23.22;45.44
50977;BME280;36992;48.200;12.418;2023-06-10T08:16:04;96432.25;;;23.30;46.54
50977;BME280;36992;48.200;12.418;2023-06-10T08:18:31;96428.34;;;23.39;46.15
50977;BME280;36992;48.200;12.418;2023-06-10T08:20:58;96437.06;;;23.48;45.71
50977;BME280;36992;48.200;12.418;2023-06-10T08:23:24;96438.66;;;23.56;44.78
50977;BME280;36992;48.200;12.418;2023-06-10T08:25:50;96426.94;;;23.63;45.26
50977;BME280;36992;48.200;12.418;2023-06-10T08:28:18;96435.59;;;23.73;45.26
50977;BME280;36992;48.200;12.418;2023-06-10T08:30:45;96434.84;;;23.79;44.84
50977;BME280;36992;48.200;12.418;2023-06-10T08:33:11;96430.16;;;23.87;44.25
50977;BME280;36992;48.200;12.418;2023-06-10T08:35:38;96430.19;;;23.94;43.51
50977;BME280;36992;48.200;12.418;2023-06-10T08:38:04;96432.56;;;24.00;43.51
50977;BME280;36992;48.200;12.418;2023-06-10T08:40:32;96431.44;;;24.08;43.25
50977;BME280;36992;48.200;12.418;2023-06-10T08:43:01;96429.50;;;24.16;43.25
50977;BME280;36992;48.200;12.418;2023-06-10T08:45:32;96425.97;;;24.19;42.86
50977;BME280;36992;48.200;12.418;2023-06-10T08:48:02;96426.34;;;24.21;43.54
50977;BME280;36992;48.200;12.418;2023-06-10T08:50:33;96425.97;;;24.26;43.47
50977;BME280;36992;48.200;12.418;2023-06-10T08:53:00;96421.28;;;24.30;42.42
50977;BME280;36992;48.200;12.418;2023-06-10T08:55:31;96426.00;;;24.37;42.88
50977;BME280;36992;48.200;12.418;2023-06-10T08:57:59;96432.66;;;24.39;43.38
50977;BME280;36992;48.200;12.418;2023-06-10T09:00:26;96432.28;;;24.45;42.55
50977;BME280;36992;48.200;12.418;2023-06-10T09:02:55;96421.28;;;24.52;42.57
50977;BME280;36992;48.200;12.418;2023-06-10T09:05:21;96424.84;;;24.56;42.27
50977;BME280;36992;48.200;12.418;2023-06-10T09:07:48;96418.56;;;24.63;41.23
50977;BME280;36992;48.200;12.418;2023-06-10T09:10:15;96421.69;;;24.69;41.59
50977;BME280;36992;48.200;12.418;2023-06-10T09:12:41;96418.94;;;24.72;40.72
50977;BME280;36992;48.200;12.418;2023-06-10T09:15:08;96421.69;;;24.76;41.09
50977;BME280;36992;48.200;12.418;2023-06-10T09:17:37;96415.81;;;24.77;41.52
50977;BME280;36992;48.200;12.418;2023-06-10T09:20:07;96417.81;;;24.84;41.17
50977;BME280;36992;48.200;12.418;2023-06-10T09:22:34;96417.81;;;24.84;40.88
50977;BME280;36992;48.200;12.418;2023-06-10T09:25:04;96420.94;;;24.94;41.52
50977;BME280;36992;48.200;12.418;2023-06-10T09:27:32;96414.66;;;24.97;40.29
50977;BME280;36992;48.200;12.418;2023-06-10T09:29:58;96419.75;;;25.02;40.63
50977;BME280;36992;48.200;12.418;2023-06-10T09:32:26;96420.91;;;25.08;40.97
50977;BME280;36992;48.200;12.418;2023-06-10T09:34:53;96413.06;;;25.14;40.04
50977;BME280;36992;48.200;12.418;2023-06-10T09:37:24;96410.66;;;25.23;40.29
50977;BME280;36992;48.200;12.418;2023-06-10T09:40:02;96406.72;;;25.31;40.90
50977;BME280;36992;48.200;12.418;2023-06-10T09:42:32;96410.66;;;25.34;41.47
50977;BME280;36992;48.200;12.418;2023-06-10T09:44:59;96408.25;;;25.40;40.70
50977;BME280;36992;48.200;12.418;2023-06-10T09:47:25;96409.81;;;25.48;39.42
50977;BME280;36992;48.200;12.418;2023-06-10T09:49:52;96411.00;;;25.54;38.71
50977;BME280;36992;48.200;12.418;2023-06-10T09:52:21;96413.34;;;25.63;40.21
50977;BME280;36992;48.200;12.418;2023-06-10T09:54:49;96417.25;;;25.69;39.82
50977;BME280;36992;48.200;12.418;2023-06-10T09:57:17;96412.91;;;25.76;38.40
50977;BME280;36992;48.200;12.418;2023-06-10T09:59:44;96400.66;;;25.80;38.15
50977;BME280;36992;48.200;12.418;2023-06-10T10:02:13;96410.50;;;25.89;38.38
50977;BME280;36992;48.200;12.418;2023-06-10T10:04:40;96408.09;;;25.91;38.78
50977;BME280;36992;48.200;12.418;2023-06-10T10:07:07;96409.66;;;25.95;38.93
50977;BME280;36992;48.200;12.418;2023-06-10T10:09:35;96405.28;;;26.02;38.56
50977;BME280;36992;48.200;12.418;2023-06-10T10:12:04;96410.38;;;26.10;38.56
50977;BME280;36992;48.200;12.418;2023-06-10T10:14:36;96417.84;;;26.13;38.48
50977;BME280;36992;48.200;12.418;2023-06-10T10:17:04;96413.09;;;26.21;38.41
50977;BME280;36992;48.200;12.418;2023-06-10T10:19:37;96407.50;;;26.32;38.44
50977;BME280;36992;48.200;12.418;2023-06-10T10:22:07;96413.38;;;26.38;37.78
50977;BME280;36992;48.200;12.418;2023-06-10T10:24:38;96420.00;;;26.51;38.59
50977;BME280;36992;48.200;12.418;2023-06-10T10:27:17;96414.81;;;26.61;37.39
50977;BME280;36992;48.200;12.418;2023-06-10T10:29:47;96410.03;;;26.69;37.18
50977;BME280;36992;48.200;12.418;2023-06-10T10:32:16;96411.50;;;26.80;37.24
50977;BME280;36992;48.200;12.418;2023-06-10T10:34:49;96405.13;;;26.91;37.64
50977;BME280;36992;48.200;12.418;2023-06-10T10:37:17;96400.72;;;26.97;36.94
50977;BME280;36992;48.200;12.418;2023-06-10T10:39:44;96412.03;;;27.10;36.61
50977;BME280;36992;48.200;12.418;2023-06-10T10:42:13;96403.63;;;27.21;36.87
50977;BME280;36992;48.200;12.418;2023-06-10T10:44:40;96403.94;;;27.30;35.88
50977;BME280;36992;48.200;12.418;2023-06-10T10:47:08;96403.84;;;27.41;34.65
50977;BME280;36992;48.200;12.418;2023-06-10T10:49:35;96406.56;;;27.45;35.61
50977;BME280;36992;48.200;12.418;2023-06-10T10:52:04;96419.56;;;27.48;35.53
50977;BME280;36992;48.200;12.418;2023-06-10T10:54:32;96413.25;;;27.47;35.33
50977;BME280;36992;48.200;12.418;2023-06-10T10:57:16;96412.00;;;27.52;36.40
50977;BME280;36992;48.200;12.418;2023-06-10T10:59:52;96414.09;;;27.44;36.00
50977;BME280;36992;48.200;12.418;2023-06-10T11:02:36;96415.69;;;27.42;36.27
50977;BME280;36992;48.200;12.418;2023-06-10T11:05:05;96411.44;;;27.30;36.34
50977;BME280;36992;48.200;12.418;2023-06-10T11:07:34;96414.25;;;27.26;36.50
50977;BME280;36992;48.200;12.418;2023-06-10T11:10:05;96409.94;;;27.25;36.16
50977;BME280;36992;48.200;12.418;2023-06-10T11:12:52;96414.22;;;27.30;36.21
50977;BME280;36992;48.200;12.418;2023-06-10T11:15:21;96411.16;;;27.20;35.95
50977;BME280;36992;48.200;12.418;2023-06-10T11:18:14;96410.28;;;27.27;36.53
50977;BME280;36992;48.200;12.418;2023-06-10T11:20:55;96414.25;;;27.26;34.90
50977;BME280;36992;48.200;12.418;2023-06-10T11:23:29;96413.53;;;27.22;34.59
50977;BME280;36992;48.200;12.418;2023-06-10T11:26:10;96413.50;;;27.26;35.00
50977;BME280;36992;48.200;12.418;2023-06-10T11:28:38;96408.00;;;27.22;34.28
50977;BME280;36992;48.200;12.418;2023-06-10T11:31:05;96409.56;;;27.23;34.16
50977;BME280;36992;48.200;12.418;2023-06-10T11:33:32;96403.19;;;27.26;34.46
50977;BME280;36992;48.200;12.418;2023-06-10T11:35:58;96398.44;;;27.30;34.28
50977;BME280;36992;48.200;12.418;2023-06-10T11:38:25;96412.16;;;27.38;34.24
50977;BME280;36992;48.200;12.418;2023-06-10T11:40:52;96407.75;;;27.44;34.49
50977;BME280;36992;48.200;12.418;2023-06-10T11:43:19;96399.00;;;27.49;34.41
50977;BME280;36992;48.200;12.418;2023-06-10T11:45:47;96394.56;;;27.59;33.99
50977;BME280;36992;48.200;12.418;2023-06-10T11:48:13;96391.72;;;27.66;34.06
50977;BME280;36992;48.200;12.418;2023-06-10T11:50:40;96395.19;;;27.74;33.45
50977;BME280;36992;48.200;12.418;2023-06-10T11:53:08;96397.88;;;27.81;33.30
50977;BME280;36992;48.200;12.418;2023-06-10T11:55:42;96399.34;;;27.90;33.32
50977;BME280;36992;48.200;12.418;2023-06-10T11:58:12;96399.28;;;27.93;32.70
50977;BME280;36992;48.200;12.418;2023-06-10T12:00:44;96401.22;;;27.96;32.96
50977;BME280;36992;48.200;12.418;2023-06-10T12:03:12;96403.25;;;27.92;33.22
50977;BME280;36992;48.200;12.418;2023-06-10T12:05:39;96405.66;;;27.90;32.68
50977;BME280;36992;48.200;12.418;2023-06-10T12:08:08;96404.06;;;27.93;33.14
50977;BME280;36992;48.200;12.418;2023-06-10T12:10:39;96411.94;;;27.94;33.07
50977;BME280;36992;48.200;12.418;2023-06-10T12:13:06;96410.41;;;27.90;32.92
50977;BME280;36992;48.200;12.418;2023-06-10T12:15:32;96397.00;;;27.88;33.29
50977;BME280;36992;48.200;12.418;2023-06-10T12:17:59;96402.53;;;27.88;32.83
50977;BME280;36992;48.200;12.418;2023-06-10T12:20:28;96409.22;;;27.91;33.00
50977;BME280;36992;48.200;12.418;2023-06-10T12:22:55;96399.38;;;27.86;32.27
50977;BME280;36992;48.200;12.418;2023-06-10T12:25:24;96408.84;;;27.88;32.65
50977;BME280;36992;48.200;12.418;2023-06-10T12:27:52;96399.44;;;27.82;32.13
50977;BME280;36992;48.200;12.418;2023-06-10T12:30:19;96407.00;;;27.78;32.70
50977;BME280;36992;48.200;12.418;2023-06-10T12:32:46;96398.31;;;27.76;32.86
50977;BME280;36992;48.200;12.418;2023-06-10T12:35:15;96392.44;;;27.74;33.46
50977;BME280;36992;48.200;12.418;2023-06-10T12:37:55;96392.38;;;27.78;33.78
50977;BME280;36992;48.200;12.418;2023-06-10T12:40:25;96390.81;;;27.77;33.66
50977;BME280;36992;48.200;12.418;2023-06-10T12:42:52;96382.56;;;27.73;33.84
50977;BME280;36992;48.200;12.418;2023-06-10T12:45:26;96390.38;;;27.82;34.53
50977;BME280;36992;48.200;12.418;2023-06-10T12:48:04;96383.94;;;27.88;34.28
50977;BME280;36992;48.200;12.418;2023-06-10T12:50:31;96381.16;;;27.88;33.95
50977;BME280;36992;48.200;12.418;2023-06-10T12:52:59;96380.28;;;27.95;34.69